sensor_id;sensor_type;location;lat;lon;timestamp;P1;durP1;ratioP1;P2;durP2;ratioP2
38779;SDS011;29273;49.962;9.768;2023-02-26T00:00:16;2.08;;;1.40;;
38779;SDS011;29273;49.962;9.768;2023-02-26T00:02:45;1.67;;;1.15;;
38779;SDS011;29273;49.962;9.768;2023-02-26T00:05:12;2.30;;;1.08;;
38779;SDS011;29273;49.962;9.768;2023-02-26T00:07:39;1.38;;;1.00;;
38779;SDS011;29273;49.962;9.768;2023-02-26T00:10:05;2.75;;;1.30;;
38779;SDS011;29273;49.962;9.768;2023-02-26T00:12:32;1.60;;;1.20;;
38779;SDS011;29273;49.962;9.768;2023-02-26T00:14:58;2.65;;;1.20;;
38779;SDS011;29273;49.962;9.768;2023-02-26T00:17:41;1.63;;;0.95;;
38779;SDS011;29273;49.962;9.768;2023-02-26T00:20:13;4.10;;;1.35;;
38779;SDS011;29273;49.962;9.768;2023-02-26T00:22:41;2.80;;;0.98;;
38779;SDS011;29273;49.962;9.768;2023-02-26T00:25:08;1.75;;;1.00;;
38779;SDS011;29273;49.962;9.768;2023-02-26T00:27:33;1.33;;;1.00;;
38779;SDS011;29273;49.962;9.768;2023-02-26T00:30:00;1.52;;;1.00;;
38779;SDS011;29273;49.962;9.768;2023-02-26T00:32:27;1.30;;;1.02;;
38779;SDS011;29273;49.962;9.768;2023-02-26T00:34:53;2.00;;;1.13;;
38779;SDS011;29273;49.962;9.768;2023-02-26T00:37:26;2.20;;;1.20;;
38779;SDS011;29273;49.962;9.768;2023-02-26T00:40:09;2.35;;;1.30;;
38779;SDS011;29273;49.962;9.768;2023-02-26T00:42:43;1.40;;;1.20;;
38779;SDS011;29273;49.962;9.768;2023-02-26T00:45:09;1.23;;;1.10;;
38779;SDS011;29273;49.962;9.768;2023-02-26T00:50:21;1.35;;;0.93;;
38779;SDS011;29273;49.962;9.768;2023-02-26T00:55:36;1.20;;;1.05;;
38779;SDS011;29273;49.962;9.768;2023-02-26T00:58:03;3.00;;;1.02;;
38779;SDS011;29273;49.962;9.768;2023-02-26T01:00:28;2.60;;;1.13;;
38779;SDS011;29273;49.962;9.768;2023-02-26T01:02:55;1.33;;;1.10;;
38779;SDS011;29273;49.962;9.768;2023-02-26T01:05:21;1.63;;;1.02;;
38779;SDS011;29273;49.962;9.768;2023-02-26T01:10:34;2.30;;;1.10;;
38779;SDS011;29273;49.962;9.768;2023-02-26T01:13:00;2.17;;;1.13;;
38779;SDS011;29273;49.962;9.768;2023-02-26T01:15:25;1.73;;;1.10;;
38779;SDS011;29273;49.962;9.768;2023-02-26T01:18:05;2.20;;;1.10;;
38779;SDS011;29273;49.962;9.768;2023-02-26T01:20:56;1.42;;;1.10;;
38779;SDS011;29273;49.962;9.768;2023-02-26T01:23:34;1.85;;;0.95;;
38779;SDS011;29273;49.962;9.768;2023-02-26T01:26:10;1.73;;;1.00;;
38779;SDS011;29273;49.962;9.768;2023-02-26T01:28:40;2.00;;;0.80;;
38779;SDS011;29273;49.962;9.768;2023-02-26T01:31:06;1.85;;;1.13;;
38779;SDS011;29273;49.962;9.768;2023-02-26T01:33:55;2.15;;;1.20;;
38779;SDS011;29273;49.962;9.768;2023-02-26T01:36:29;1.88;;;1.00;;
38779;SDS011;29273;49.962;9.768;2023-02-26T01:41:56;1.10;;;1.00;;
38779;SDS011;29273;49.962;9.768;2023-02-26T01:44:34;1.23;;;1.00;;
38779;SDS011;29273;49.962;9.768;2023-02-26T01:47:09;2.33;;;1.30;;
38779;SDS011;29273;49.962;9.768;2023-02-26T01:49:41;1.20;;;1.00;;
38779;SDS011;29273;49.962;9.768;2023-02-26T01:54:59;1.53;;;1.10;;
38779;SDS011;29273;49.962;9.768;2023-02-26T01:57:25;1.88;;;1.40;;
38779;SDS011;29273;49.962;9.768;2023-02-26T01:59:51;1.17;;;1.00;;
38779;SDS011;29273;49.962;9.768;2023-02-26T02:02:18;1.55;;;1.30;;
38779;SDS011;29273;49.962;9.768;2023-02-26T02:04:46;2.38;;;1.08;;
38779;SDS011;29273;49.962;9.768;2023-02-26T02:07:13;1.45;;;1.00;;
38779;SDS011;29273;49.962;9.768;2023-02-26T02:09:39;1.08;;;0.95;;
38779;SDS011;29273;49.962;9.768;2023-02-26T02:12:09;1.48;;;1.13;;
38779;SDS011;29273;49.962;9.768;2023-02-26T02:19:52;1.33;;;1.00;;
38779;SDS011;29273;49.962;9.768;2023-02-26T02:22:50;1.48;;;1.00;;
38779;SDS011;29273;49.962;9.768;2023-02-26T02:25:55;1.05;;;0.98;;
38779;SDS011;29273;49.962;9.768;2023-02-26T02:31:44;0.98;;;0.88;;
38779;SDS011;29273;49.962;9.768;2023-02-26T02:34:35;1.33;;;1.00;;
38779;SDS011;29273;49.962;9.768;2023-02-26T02:40:23;1.33;;;1.00;;
38779;SDS011;29273;49.962;9.768;2023-02-26T02:42:54;2.42;;;1.08;;
38779;SDS011;29273;49.962;9.768;2023-02-26T02:48:09;1.63;;;1.20;;
38779;SDS011;29273;49.962;9.768;2023-02-26T02:50:42;0.90;;;0.70;;
38779;SDS011;29273;49.962;9.768;2023-02-26T02:55:46;2.28;;;1.13;;
38779;SDS011;29273;49.962;9.768;2023-02-26T02:58:22;2.05;;;1.13;;
38779;SDS011;29273;49.962;9.768;2023-02-26T03:00:53;2.25;;;1.08;;
38779;SDS011;29273;49.962;9.768;2023-02-26T03:03:24;1.90;;;1.02;;
38779;SDS011;29273;49.962;9.768;2023-02-26T03:05:55;1.10;;;0.90;;
38779;SDS011;29273;49.962;9.768;2023-02-26T03:08:23;1.40;;;0.90;;
38779;SDS011;29273;49.962;9.768;2023-02-26T03:10:52;0.88;;;0.70;;
38779;SDS011;29273;49.962;9.768;2023-02-26T03:13:19;1.70;;;1.00;;
38779;SDS011;29273;49.962;9.768;2023-02-26T03:15:59;1.35;;;1.13;;
38779;SDS011;29273;49.962;9.768;2023-02-26T03:27:39;3.35;;;1.30;;
38779;SDS011;29273;49.962;9.768;2023-02-26T03:30:21;1.15;;;0.80;;
38779;SDS011;29273;49.962;9.768;2023-02-26T03:32:50;1.38;;;0.90;;
38779;SDS011;29273;49.962;9.768;2023-02-26T03:35:27;1.42;;;0.82;;
38779;SDS011;29273;49.962;9.768;2023-02-26T03:38:00;1.80;;;0.80;;
38779;SDS011;29273;49.962;9.768;2023-02-26T03:40:42;1.48;;;0.82;;
38779;SDS011;29273;49.962;9.768;2023-02-26T03:43:38;2.25;;;1.20;;
38779;SDS011;29273;49.962;9.768;2023-02-26T03:46:13;2.63;;;1.00;;
38779;SDS011;29273;49.962;9.768;2023-02-26T03:48:43;1.98;;;0.98;;
38779;SDS011;29273;49.962;9.768;2023-02-26T03:51:13;2.80;;;0.90;;
38779;SDS011;29273;49.962;9.768;2023-02-26T03:54:16;1.08;;;0.80;;
38779;SDS011;29273;49.962;9.768;2023-02-26T03:56:53;1.55;;;0.90;;
38779;SDS011;29273;49.962;9.768;2023-02-26T03:59:45;1.75;;;0.98;;
38779;SDS011;29273;49.962;9.768;2023-02-26T04:03:13;1.67;;;0.90;;
38779;SDS011;29273;49.962;9.768;2023-02-26T04:05:21;1.80;;;0.98;;
38779;SDS011;29273;49.962;9.768;2023-02-26T04:07:49;1.20;;;0.80;;
38779;SDS011;29273;49.962;9.768;2023-02-26T04:10:16;1.55;;;1.10;;
38779;SDS011;29273;49.962;9.768;2023-02-26T04:12:45;1.48;;;0.95;;
38779;SDS011;29273;49.962;9.768;2023-02-26T04:15:12;1.17;;;1.00;;
38779;SDS011;29273;49.962;9.768;2023-02-26T04:17:39;1.10;;;0.90;;
38779;SDS011;29273;49.962;9.768;2023-02-26T04:20:05;1.05;;;1.00;;
38779;SDS011;29273;49.962;9.768;2023-02-26T04:22:33;1.48;;;1.00;;
38779;SDS011;29273;49.962;9.768;2023-02-26T04:24:59;1.02;;;0.95;;
38779;SDS011;29273;49.962;9.768;2023-02-26T04:27:25;1.73;;;1.10;;
38779;SDS011;29273;49.962;9.768;2023-02-26T04:29:51;2.42;;;1.10;;
38779;SDS011;29273;49.962;9.768;2023-02-26T04:32:16;2.45;;;1.10;;
38779;SDS011;29273;49.962;9.768;2023-02-26T04:34:42;1.50;;;1.00;;
38779;SDS011;29273;49.962;9.768;2023-02-26T04:37:08;1.35;;;0.90;;
38779;SDS011;29273;49.962;9.768;2023-02-26T04:39:35;1.38;;;0.85;;
38779;SDS011;29273;49.962;9.768;2023-02-26T04:42:01;1.00;;;0.90;;
38779;SDS011;29273;49.962;9.768;2023-02-26T04:44:29;1.70;;;1.20;;
38779;SDS011;29273;49.962;9.768;2023-02-26T04:46:55;1.58;;;0.88;;
38779;SDS011;29273;49.962;9.768;2023-02-26T04:49:21;1.63;;;0.85;;
38779;SDS011;29273;49.962;9.768;2023-02-26T04:51:47;0.98;;;0.80;;
38779;SDS011;29273;49.962;9.768;2023-02-26T04:54:14;2.22;;;1.00;;
38779;SDS011;29273;49.962;9.768;2023-02-26T04:56:40;1.42;;;0.90;;
38779;SDS011;29273;49.962;9.768;2023-02-26T04:59:06;1.67;;;1.00;;
38779;SDS011;29273;49.962;9.768;2023-02-26T05:01:31;2.03;;;1.20;;
38779;SDS011;29273;49.962;9.768;2023-02-26T05:03:58;1.95;;;1.00;;
38779;SDS011;29273;49.962;9.768;2023-02-26T05:06:23;1.80;;;1.10;;
38779;SDS011;29273;49.962;9.768;2023-02-26T05:08:49;1.92;;;1.08;;
38779;SDS011;29273;49.962;9.768;2023-02-26T05:11:16;1.10;;;0.95;;
38779;SDS011;29273;49.962;9.768;2023-02-26T05:13:42;1.05;;;0.82;;
38779;SDS011;29273;49.962;9.768;2023-02-26T05:16:07;1.17;;;0.93;;
38779;SDS011;29273;49.962;9.768;2023-02-26T05:18:34;1.67;;;0.90;;
38779;SDS011;29273;49.962;9.768;2023-02-26T05:21:00;1.50;;;0.80;;
38779;SDS011;29273;49.962;9.768;2023-02-26T05:23:26;2.40;;;0.95;;
38779;SDS011;29273;49.962;9.768;2023-02-26T05:25:53;1.38;;;0.80;;
38779;SDS011;29273;49.962;9.768;2023-02-26T05:28:20;1.13;;;0.93;;
38779;SDS011;29273;49.962;9.768;2023-02-26T05:30:45;4.03;;;0.88;;
38779;SDS011;29273;49.962;9.768;2023-02-26T05:33:12;1.50;;;1.17;;
38779;SDS011;29273;49.962;9.768;2023-02-26T05:35:38;1.80;;;1.20;;
38779;SDS011;29273;49.962;9.768;2023-02-26T05:38:03;1.70;;;1.00;;
38779;SDS011;29273;49.962;9.768;2023-02-26T05:40:28;1.95;;;1.02;;
38779;SDS011;29273;49.962;9.768;2023-02-26T05:42:54;1.13;;;0.93;;
38779;SDS011;29273;49.962;9.768;2023-02-26T05:45:19;1.58;;;0.90;;
38779;SDS011;29273;49.962;9.768;2023-02-26T05:47:45;1.08;;;0.90;;
38779;SDS011;29273;49.962;9.768;2023-02-26T05:50:10;1.45;;;0.90;;
38779;SDS011;29273;49.962;9.768;2023-02-26T05:52:36;1.00;;;0.93;;
38779;SDS011;29273;49.962;9.768;2023-02-26T05:55:02;1.65;;;0.85;;
38779;SDS011;29273;49.962;9.768;2023-02-26T05:57:29;0.80;;;0.80;;
38779;SDS011;29273;49.962;9.768;2023-02-26T05:59:54;1.75;;;1.00;;
38779;SDS011;29273;49.962;9.768;2023-02-26T06:02:19;1.92;;;1.00;;
38779;SDS011;29273;49.962;9.768;2023-02-26T06:04:45;2.08;;;1.10;;
38779;SDS011;29273;49.962;9.768;2023-02-26T06:07:11;0.93;;;0.70;;
38779;SDS011;29273;49.962;9.768;2023-02-26T06:09:37;1.05;;;0.80;;
38779;SDS011;29273;49.962;9.768;2023-02-26T06:12:02;1.13;;;0.90;;
38779;SDS011;29273;49.962;9.768;2023-02-26T06:14:28;1.45;;;1.30;;
38779;SDS011;29273;49.962;9.768;2023-02-26T06:16:54;1.70;;;0.70;;
38779;SDS011;29273;49.962;9.768;2023-02-26T06:19:19;1.92;;;0.93;;
38779;SDS011;29273;49.962;9.768;2023-02-26T06:21:45;1.55;;;0.73;;
38779;SDS011;29273;49.962;9.768;2023-02-26T06:24:11;1.73;;;0.80;;
38779;SDS011;29273;49.962;9.768;2023-02-26T06:26:37;1.83;;;1.00;;
38779;SDS011;29273;49.962;9.768;2023-02-26T06:29:02;1.52;;;0.90;;
38779;SDS011;29273;49.962;9.768;2023-02-26T06:31:28;1.98;;;1.00;;
38779;SDS011;29273;49.962;9.768;2023-02-26T06:33:53;1.23;;;1.00;;
38779;SDS011;29273;49.962;9.768;2023-02-26T06:36:19;1.10;;;0.80;;
38779;SDS011;29273;49.962;9.768;2023-02-26T06:38:44;1.55;;;1.30;;
38779;SDS011;29273;49.962;9.768;2023-02-26T06:41:10;1.67;;;1.38;;
38779;SDS011;29273;49.962;9.768;2023-02-26T06:43:36;1.55;;;1.27;;
38779;SDS011;29273;49.962;9.768;2023-02-26T06:46:02;1.73;;;1.00;;
38779;SDS011;29273;49.962;9.768;2023-02-26T06:48:27;1.63;;;1.33;;
38779;SDS011;29273;49.962;9.768;2023-02-26T06:50:53;1.23;;;1.00;;
38779;SDS011;29273;49.962;9.768;2023-02-26T06:53:19;1.73;;;0.90;;
38779;SDS011;29273;49.962;9.768;2023-02-26T06:55:45;1.25;;;1.15;;
38779;SDS011;29273;49.962;9.768;2023-02-26T06:58:12;1.13;;;0.90;;
38779;SDS011;29273;49.962;9.768;2023-02-26T07:00:38;1.63;;;1.25;;
38779;SDS011;29273;49.962;9.768;2023-02-26T07:03:05;2.20;;;1.50;;
38779;SDS011;29273;49.962;9.768;2023-02-26T07:05:31;2.17;;;1.38;;
38779;SDS011;29273;49.962;9.768;2023-02-26T07:07:57;2.35;;;1.35;;
38779;SDS011;29273;49.962;9.768;2023-02-26T07:10:22;1.10;;;1.00;;
38779;SDS011;29273;49.962;9.768;2023-02-26T07:12:49;1.25;;;1.00;;
38779;SDS011;29273;49.962;9.768;2023-02-26T07:15:15;1.70;;;1.10;;
38779;SDS011;29273;49.962;9.768;2023-02-26T07:17:41;1.63;;;0.98;;
38779;SDS011;29273;49.962;9.768;2023-02-26T07:20:07;0.80;;;0.80;;
38779;SDS011;29273;49.962;9.768;2023-02-26T07:22:35;1.05;;;0.88;;
38779;SDS011;29273;49.962;9.768;2023-02-26T07:25:02;1.13;;;1.00;;
38779;SDS011;29273;49.962;9.768;2023-02-26T07:27:28;1.10;;;0.90;;
38779;SDS011;29273;49.962;9.768;2023-02-26T07:29:54;1.77;;;1.08;;
38779;SDS011;29273;49.962;9.768;2023-02-26T07:32:20;1.17;;;0.80;;
38779;SDS011;29273;49.962;9.768;2023-02-26T07:34:46;0.90;;;0.80;;
38779;SDS011;29273;49.962;9.768;2023-02-26T07:37:11;1.00;;;0.90;;
38779;SDS011;29273;49.962;9.768;2023-02-26T07:39:37;1.45;;;1.00;;
38779;SDS011;29273;49.962;9.768;2023-02-26T07:42:02;1.50;;;1.00;;
38779;SDS011;29273;49.962;9.768;2023-02-26T07:44:28;1.95;;;0.98;;
38779;SDS011;29273;49.962;9.768;2023-02-26T07:46:54;1.50;;;0.90;;
38779;SDS011;29273;49.962;9.768;2023-02-26T07:49:19;1.80;;;0.90;;
38779;SDS011;29273;49.962;9.768;2023-02-26T07:51:45;1.05;;;0.90;;
38779;SDS011;29273;49.962;9.768;2023-02-26T07:54:12;1.52;;;1.17;;
38779;SDS011;29273;49.962;9.768;2023-02-26T07:56:39;1.10;;;0.75;;
38779;SDS011;29273;49.962;9.768;2023-02-26T07:59:07;1.08;;;0.80;;
38779;SDS011;29273;49.962;9.768;2023-02-26T08:01:33;1.42;;;0.85;;
38779;SDS011;29273;49.962;9.768;2023-02-26T08:03:59;1.27;;;0.80;;
38779;SDS011;29273;49.962;9.768;2023-02-26T08:06:25;0.93;;;0.80;;
38779;SDS011;29273;49.962;9.768;2023-02-26T08:08:50;0.90;;;0.80;;
38779;SDS011;29273;49.962;9.768;2023-02-26T08:11:16;0.90;;;0.80;;
38779;SDS011;29273;49.962;9.768;2023-02-26T08:13:41;1.35;;;0.98;;
38779;SDS011;29273;49.962;9.768;2023-02-26T08:16:07;1.00;;;0.85;;
38779;SDS011;29273;49.962;9.768;2023-02-26T08:18:32;0.90;;;0.80;;
38779;SDS011;29273;49.962;9.768;2023-02-26T08:20:58;1.27;;;0.85;;
38779;SDS011;29273;49.962;9.768;2023-02-26T08:23:23;1.40;;;0.80;;
38779;SDS011;29273;49.962;9.768;2023-02-26T08:25:52;1.02;;;0.80;;
38779;SDS011;29273;49.962;9.768;2023-02-26T08:28:24;0.70;;;0.70;;
38779;SDS011;29273;49.962;9.768;2023-02-26T08:30:52;0.98;;;0.90;;
38779;SDS011;29273;49.962;9.768;2023-02-26T08:33:18;0.70;;;0.70;;
38779;SDS011;29273;49.962;9.768;2023-02-26T08:35:44;1.15;;;0.70;;
38779;SDS011;29273;49.962;9.768;2023-02-26T08:38:09;0.70;;;0.68;;
38779;SDS011;29273;49.962;9.768;2023-02-26T08:40:35;0.80;;;0.70;;
38779;SDS011;29273;49.962;9.768;2023-02-26T08:43:00;0.93;;;0.70;;
38779;SDS011;29273;49.962;9.768;2023-02-26T08:45:28;1.50;;;0.80;;
38779;SDS011;29273;49.962;9.768;2023-02-26T08:47:53;1.90;;;1.55;;
38779;SDS011;29273;49.962;9.768;2023-02-26T08:50:19;1.58;;;1.23;;
38779;SDS011;29273;49.962;9.768;2023-02-26T08:52:45;1.40;;;1.20;;
38779;SDS011;29273;49.962;9.768;2023-02-26T08:55:11;2.45;;;1.30;;
38779;SDS011;29273;49.962;9.768;2023-02-26T08:57:36;2.05;;;1.02;;
38779;SDS011;29273;49.962;9.768;2023-02-26T09:00:02;1.38;;;0.90;;
38779;SDS011;29273;49.962;9.768;2023-02-26T09:02:29;0.80;;;0.80;;
38779;SDS011;29273;49.962;9.768;2023-02-26T09:04:54;1.52;;;0.80;;
38779;SDS011;29273;49.962;9.768;2023-02-26T09:07:20;0.60;;;0.60;;
38779;SDS011;29273;49.962;9.768;2023-02-26T09:09:45;1.25;;;0.80;;
38779;SDS011;29273;49.962;9.768;2023-02-26T09:12:11;0.60;;;0.60;;
38779;SDS011;29273;49.962;9.768;2023-02-26T09:14:36;0.70;;;0.70;;
38779;SDS011;29273;49.962;9.768;2023-02-26T09:17:02;0.60;;;0.60;;
38779;SDS011;29273;49.962;9.768;2023-02-26T09:19:28;0.90;;;0.73;;
38779;SDS011;29273;49.962;9.768;2023-02-26T09:21:53;1.48;;;0.70;;
38779;SDS011;29273;49.962;9.768;2023-02-26T09:24:20;0.90;;;0.60;;
38779;SDS011;29273;49.962;9.768;2023-02-26T09:26:45;0.50;;;0.47;;
38779;SDS011;29273;49.962;9.768;2023-02-26T09:29:11;0.93;;;0.68;;
38779;SDS011;29273;49.962;9.768;2023-02-26T09:31:37;2.53;;;1.40;;
38779;SDS011;29273;49.962;9.768;2023-02-26T09:34:02;0.82;;;0.73;;
38779;SDS011;29273;49.962;9.768;2023-02-26T09:36:28;0.80;;;0.80;;
38779;SDS011;29273;49.962;9.768;2023-02-26T09:38:55;0.70;;;0.70;;
38779;SDS011;29273;49.962;9.768;2023-02-26T09:41:22;1.00;;;0.90;;
38779;SDS011;29273;49.962;9.768;2023-02-26T09:49:16;0.63;;;0.63;;
38779;SDS011;29273;49.962;9.768;2023-02-26T09:52:00;1.15;;;0.77;;
38779;SDS011;29273;49.962;9.768;2023-02-26T09:54:32;1.17;;;0.90;;
38779;SDS011;29273;49.962;9.768;2023-02-26T09:57:09;1.58;;;1.27;;
38779;SDS011;29273;49.962;9.768;2023-02-26T09:59:39;1.65;;;1.15;;
38779;SDS011;29273;49.962;9.768;2023-02-26T10:02:10;1.42;;;1.00;;
38779;SDS011;29273;49.962;9.768;2023-02-26T10:07:27;1.15;;;0.90;;
38779;SDS011;29273;49.962;9.768;2023-02-26T10:12:47;0.70;;;0.70;;
38779;SDS011;29273;49.962;9.768;2023-02-26T10:17:51;0.90;;;0.75;;
38779;SDS011;29273;49.962;9.768;2023-02-26T10:20:42;0.80;;;0.80;;
38779;SDS011;29273;49.962;9.768;2023-02-26T10:26:36;1.20;;;0.70;;
38779;SDS011;29273;49.962;9.768;2023-02-26T10:39:42;1.13;;;0.70;;
38779;SDS011;29273;49.962;9.768;2023-02-26T10:42:16;0.60;;;0.60;;
38779;SDS011;29273;49.962;9.768;2023-02-26T10:45:03;0.82;;;0.70;;
38779;SDS011;29273;49.962;9.768;2023-02-26T10:47:48;0.80;;;0.75;;
38779;SDS011;29273;49.962;9.768;2023-02-26T10:50:24;0.50;;;0.50;;
38779;SDS011;29273;49.962;9.768;2023-02-26T10:52:51;0.93;;;0.60;;
38779;SDS011;29273;49.962;9.768;2023-02-26T10:55:22;0.50;;;0.50;;
38779;SDS011;29273;49.962;9.768;2023-02-26T10:57:51;0.70;;;0.60;;
38779;SDS011;29273;49.962;9.768;2023-02-26T11:00:24;0.50;;;0.50;;
38779;SDS011;29273;49.962;9.768;2023-02-26T11:02:50;0.65;;;0.50;;
38779;SDS011;29273;49.962;9.768;2023-02-26T11:05:26;0.98;;;0.60;;
38779;SDS011;29273;49.962;9.768;2023-02-26T11:07:54;0.82;;;0.60;;
38779;SDS011;29273;49.962;9.768;2023-02-26T11:10:24;0.55;;;0.47;;
38779;SDS011;29273;49.962;9.768;2023-02-26T11:12:52;1.75;;;0.60;;
38779;SDS011;29273;49.962;9.768;2023-02-26T11:15:19;0.50;;;0.50;;
38779;SDS011;29273;49.962;9.768;2023-02-26T11:17:47;0.52;;;0.50;;
38779;SDS011;29273;49.962;9.768;2023-02-26T11:20:25;0.30;;;0.30;;
38779;SDS011;29273;49.962;9.768;2023-02-26T11:22:56;1.13;;;0.68;;
38779;SDS011;29273;49.962;9.768;2023-02-26T11:25:26;0.80;;;0.57;;
38779;SDS011;29273;49.962;9.768;2023-02-26T11:28:02;1.17;;;0.50;;
38779;SDS011;29273;49.962;9.768;2023-02-26T11:30:31;0.98;;;0.70;;
38779;SDS011;29273;49.962;9.768;2023-02-26T11:33:17;0.80;;;0.60;;
38779;SDS011;29273;49.962;9.768;2023-02-26T11:35:47;1.33;;;0.80;;
38779;SDS011;29273;49.962;9.768;2023-02-26T11:38:15;0.52;;;0.52;;
38779;SDS011;29273;49.962;9.768;2023-02-26T11:40:45;0.60;;;0.60;;
38779;SDS011;29273;49.962;9.768;2023-02-26T11:43:17;0.50;;;0.50;;
38779;SDS011;29273;49.962;9.768;2023-02-26T11:45:45;0.70;;;0.50;;
38779;SDS011;29273;49.962;9.768;2023-02-26T11:48:18;0.90;;;0.50;;
38779;SDS011;29273;49.962;9.768;2023-02-26T11:50:48;0.60;;;0.60;;
38779;SDS011;29273;49.962;9.768;2023-02-26T11:53:18;0.85;;;0.60;;
38779;SDS011;29273;49.962;9.768;2023-02-26T11:55:59;0.60;;;0.60;;
38779;SDS011;29273;49.962;9.768;2023-02-26T11:58:28;0.60;;;0.60;;
38779;SDS011;29273;49.962;9.768;2023-02-26T12:00:58;0.40;;;0.40;;
38779;SDS011;29273;49.962;9.768;2023-02-26T12:03:26;1.65;;;0.60;;
38779;SDS011;29273;49.962;9.768;2023-02-26T12:05:53;0.60;;;0.60;;
38779;SDS011;29273;49.962;9.768;2023-02-26T12:08:21;0.60;;;0.60;;
38779;SDS011;29273;49.962;9.768;2023-02-26T12:22:05;0.40;;;0.40;;
38779;SDS011;29273;49.962;9.768;2023-02-26T12:30:44;0.88;;;0.68;;
38779;SDS011;29273;49.962;9.768;2023-02-26T12:42:09;1.45;;;0.52;;
38779;SDS011;29273;49.962;9.768;2023-02-26T12:45:03;0.60;;;0.60;;
38779;SDS011;29273;49.962;9.768;2023-02-26T12:48:04;0.82;;;0.50;;
38779;SDS011;29273;49.962;9.768;2023-02-26T12:50:59;0.95;;;0.55;;
38779;SDS011;29273;49.962;9.768;2023-02-26T12:56:23;0.95;;;0.60;;
38779;SDS011;29273;49.962;9.768;2023-02-26T13:02:05;1.05;;;0.60;;
38779;SDS011;29273;49.962;9.768;2023-02-26T13:07:17;0.57;;;0.57;;
38779;SDS011;29273;49.962;9.768;2023-02-26T13:10:35;0.60;;;0.60;;
38779;SDS011;29273;49.962;9.768;2023-02-26T13:18:24;1.38;;;0.52;;
38779;SDS011;29273;49.962;9.768;2023-02-26T13:21:01;0.65;;;0.60;;
38779;SDS011;29273;49.962;9.768;2023-02-26T13:23:33;1.20;;;0.73;;
38779;SDS011;29273;49.962;9.768;2023-02-26T13:26:13;1.27;;;0.95;;
38779;SDS011;29273;49.962;9.768;2023-02-26T13:31:22;1.05;;;0.70;;
38779;SDS011;29273;49.962;9.768;2023-02-26T13:33:52;0.57;;;0.57;;
38779;SDS011;29273;49.962;9.768;2023-02-26T13:36:21;0.60;;;0.50;;
38779;SDS011;29273;49.962;9.768;2023-02-26T13:39:37;0.63;;;0.60;;
38779;SDS011;29273;49.962;9.768;2023-02-26T13:47:46;0.90;;;0.60;;
38779;SDS011;29273;49.962;9.768;2023-02-26T13:51:28;1.67;;;0.60;;
38779;SDS011;29273;49.962;9.768;2023-02-26T13:53:53;0.85;;;0.63;;
38779;SDS011;29273;49.962;9.768;2023-02-26T14:01:32;0.57;;;0.57;;
38779;SDS011;29273;49.962;9.768;2023-02-26T14:06:53;1.45;;;0.90;;
38779;SDS011;29273;49.962;9.768;2023-02-26T14:15:17;1.38;;;0.85;;
38779;SDS011;29273;49.962;9.768;2023-02-26T14:17:37;1.48;;;0.85;;
38779;SDS011;29273;49.962;9.768;2023-02-26T14:22:52;0.70;;;0.70;;
38779;SDS011;29273;49.962;9.768;2023-02-26T14:25:36;0.88;;;0.50;;
38779;SDS011;29273;49.962;9.768;2023-02-26T14:30:50;1.20;;;0.60;;
38779;SDS011;29273;49.962;9.768;2023-02-26T14:33:38;1.23;;;0.90;;
38779;SDS011;29273;49.962;9.768;2023-02-26T14:36:18;0.95;;;0.80;;
38779;SDS011;29273;49.962;9.768;2023-02-26T14:38:51;0.80;;;0.70;;
38779;SDS011;29273;49.962;9.768;2023-02-26T14:41:26;0.65;;;0.55;;
38779;SDS011;29273;49.962;9.768;2023-02-26T14:44:09;2.03;;;0.75;;
38779;SDS011;29273;49.962;9.768;2023-02-26T14:46:41;1.08;;;0.70;;
38779;SDS011;29273;49.962;9.768;2023-02-26T14:49:12;0.70;;;0.60;;
38779;SDS011;29273;49.962;9.768;2023-02-26T14:52:01;1.05;;;0.70;;
38779;SDS011;29273;49.962;9.768;2023-02-26T14:54:49;0.60;;;0.60;;
38779;SDS011;29273;49.962;9.768;2023-02-26T14:57:43;0.50;;;0.50;;
38779;SDS011;29273;49.962;9.768;2023-02-26T15:03:20;1.20;;;0.68;;
38779;SDS011;29273;49.962;9.768;2023-02-26T15:08:34;0.60;;;0.50;;
38779;SDS011;29273;49.962;9.768;2023-02-26T15:11:14;0.60;;;0.60;;
38779;SDS011;29273;49.962;9.768;2023-02-26T15:17:31;0.73;;;0.47;;
38779;SDS011;29273;49.962;9.768;2023-02-26T15:20:17;0.88;;;0.65;;
38779;SDS011;29273;49.962;9.768;2023-02-26T15:26:02;2.13;;;1.30;;
38779;SDS011;29273;49.962;9.768;2023-02-26T15:28:30;1.73;;;1.15;;
38779;SDS011;29273;49.962;9.768;2023-02-26T15:31:00;2.22;;;1.40;;
38779;SDS011;29273;49.962;9.768;2023-02-26T15:33:27;1.50;;;0.80;;
38779;SDS011;29273;49.962;9.768;2023-02-26T15:35:54;2.28;;;1.40;;
38779;SDS011;29273;49.962;9.768;2023-02-26T15:38:20;2.92;;;1.80;;
38779;SDS011;29273;49.962;9.768;2023-02-26T15:40:47;1.80;;;1.20;;
38779;SDS011;29273;49.962;9.768;2023-02-26T15:43:15;1.35;;;0.90;;
38779;SDS011;29273;49.962;9.768;2023-02-26T15:45:47;1.23;;;1.00;;
38779;SDS011;29273;49.962;9.768;2023-02-26T15:48:17;2.25;;;0.90;;
38779;SDS011;29273;49.962;9.768;2023-02-26T15:50:47;4.20;;;1.40;;
38779;SDS011;29273;49.962;9.768;2023-02-26T15:53:20;2.42;;;1.38;;
38779;SDS011;29273;49.962;9.768;2023-02-26T15:55:53;1.70;;;1.30;;
38779;SDS011;29273;49.962;9.768;2023-02-26T15:58:57;1.90;;;1.25;;
38779;SDS011;29273;49.962;9.768;2023-02-26T16:01:17;1.92;;;1.10;;
38779;SDS011;29273;49.962;9.768;2023-02-26T16:03:44;1.08;;;0.90;;
38779;SDS011;29273;49.962;9.768;2023-02-26T16:06:11;1.05;;;0.80;;
38779;SDS011;29273;49.962;9.768;2023-02-26T16:08:40;1.90;;;0.90;;
38779;SDS011;29273;49.962;9.768;2023-02-26T16:11:05;0.65;;;0.60;;
38779;SDS011;29273;49.962;9.768;2023-02-26T16:13:32;0.80;;;0.80;;
38779;SDS011;29273;49.962;9.768;2023-02-26T16:16:06;0.85;;;0.80;;
38779;SDS011;29273;49.962;9.768;2023-02-26T16:18:36;1.60;;;0.90;;
38779;SDS011;29273;49.962;9.768;2023-02-26T16:21:05;0.80;;;0.80;;
38779;SDS011;29273;49.962;9.768;2023-02-26T16:26:12;1.63;;;0.80;;
38779;SDS011;29273;49.962;9.768;2023-02-26T16:28:42;0.50;;;0.50;;
38779;SDS011;29273;49.962;9.768;2023-02-26T16:31:20;0.70;;;0.70;;
38779;SDS011;29273;49.962;9.768;2023-02-26T16:33:54;0.98;;;0.80;;
38779;SDS011;29273;49.962;9.768;2023-02-26T16:36:20;1.15;;;0.70;;
38779;SDS011;29273;49.962;9.768;2023-02-26T16:39:07;0.70;;;0.68;;
38779;SDS011;29273;49.962;9.768;2023-02-26T16:41:45;1.02;;;0.90;;
38779;SDS011;29273;49.962;9.768;2023-02-26T16:46:56;1.83;;;0.80;;
38779;SDS011;29273;49.962;9.768;2023-02-26T16:49:33;1.52;;;0.70;;
38779;SDS011;29273;49.962;9.768;2023-02-26T16:52:01;1.08;;;0.80;;
38779;SDS011;29273;49.962;9.768;2023-02-26T16:54:37;1.67;;;0.70;;
38779;SDS011;29273;49.962;9.768;2023-02-26T16:57:05;0.68;;;0.60;;
38779;SDS011;29273;49.962;9.768;2023-02-26T16:59:38;0.85;;;0.70;;
38779;SDS011;29273;49.962;9.768;2023-02-26T17:02:15;1.02;;;0.70;;
38779;SDS011;29273;49.962;9.768;2023-02-26T17:04:43;1.30;;;1.00;;
38779;SDS011;29273;49.962;9.768;2023-02-26T17:07:30;1.00;;;0.90;;
38779;SDS011;29273;49.962;9.768;2023-02-26T17:10:05;1.85;;;0.88;;
38779;SDS011;29273;49.962;9.768;2023-02-26T17:12:46;1.17;;;0.70;;
38779;SDS011;29273;49.962;9.768;2023-02-26T17:15:19;0.90;;;0.80;;
38779;SDS011;29273;49.962;9.768;2023-02-26T17:17:51;1.00;;;0.80;;
38779;SDS011;29273;49.962;9.768;2023-02-26T17:20:21;0.98;;;0.80;;
38779;SDS011;29273;49.962;9.768;2023-02-26T17:22:47;0.77;;;0.70;;
38779;SDS011;29273;49.962;9.768;2023-02-26T17:25:14;0.60;;;0.60;;
38779;SDS011;29273;49.962;9.768;2023-02-26T17:27:41;0.82;;;0.60;;
38779;SDS011;29273;49.962;9.768;2023-02-26T17:30:07;0.60;;;0.60;;
38779;SDS011;29273;49.962;9.768;2023-02-26T17:32:35;0.82;;;0.75;;
38779;SDS011;29273;49.962;9.768;2023-02-26T17:35:01;1.10;;;0.63;;
38779;SDS011;29273;49.962;9.768;2023-02-26T17:37:31;0.80;;;0.65;;
38779;SDS011;29273;49.962;9.768;2023-02-26T17:39:58;0.80;;;0.60;;
38779;SDS011;29273;49.962;9.768;2023-02-26T17:42:24;0.77;;;0.68;;